createdAt,value
2019-02-06T00:00:50.771Z,12.83
2019-02-06T00:03:19.927Z,14.30
2019-02-06T00:05:47.278Z,14.80
2019-02-06T00:08:14.607Z,14.13
2019-02-06T00:10:41.889Z,14.03
2019-02-06T00:13:09.249Z,15.63
2019-02-06T00:15:36.844Z,14.30
2019-02-06T00:18:04.361Z,15.20
2019-02-06T00:20:31.916Z,14.80
2019-02-06T00:22:59.166Z,16.97
2019-02-06T00:25:26.459Z,14.17
2019-02-06T00:27:53.958Z,14.23
2019-02-06T00:30:23.007Z,15.33
2019-02-06T00:32:50.511Z,13.30
2019-02-06T00:35:25.538Z,17.00
2019-02-06T00:37:46.766Z,13.40
2019-02-06T00:40:14.114Z,14.67
2019-02-06T00:42:41.366Z,13.50
2019-02-06T00:45:10.158Z,13.77
2019-02-06T00:47:37.751Z,14.13
2019-02-06T00:50:06.563Z,15.80
2019-02-06T00:52:34.194Z,14.30
2019-02-06T00:55:01.541Z,14.97
2019-02-06T00:57:28.830Z,13.23
2019-02-06T00:59:58.467Z,16.83
2019-02-06T01:02:25.381Z,15.33
2019-02-06T01:04:52.937Z,15.80
2019-02-06T01:07:20.235Z,16.53
2019-02-06T01:09:47.565Z,14.40
2019-02-06T01:12:15.058Z,15.63
2019-02-06T01:14:42.335Z,19.77
2019-02-06T01:17:09.858Z,16.87
2019-02-06T01:19:37.392Z,17.40
2019-02-06T01:22:04.666Z,17.70
2019-02-06T01:24:31.949Z,16.43
2019-02-06T01:26:59.506Z,17.17
2019-02-06T01:29:27.142Z,17.43
2019-02-06T01:31:54.862Z,19.20
2019-02-06T01:34:22.148Z,16.27
2019-02-06T01:36:49.398Z,15.87
2019-02-06T01:39:16.940Z,17.63
2019-02-06T01:41:44.286Z,16.60
2019-02-06T01:44:11.839Z,17.47
2019-02-06T01:46:39.456Z,16.10
2019-02-06T01:49:07.001Z,18.40
2019-02-06T01:51:34.274Z,18.30
2019-02-06T01:54:01.605Z,18.70
2019-02-06T01:56:28.947Z,19.37
2019-02-06T01:58:56.276Z,17.53
2019-02-06T02:01:23.539Z,17.57
2019-02-06T02:03:50.964Z,17.40
2019-02-06T02:06:18.283Z,17.63
2019-02-06T02:08:47.212Z,17.27
2019-02-06T02:11:14.758Z,16.93
2019-02-06T02:13:42.010Z,14.90
2019-02-06T02:16:09.265Z,17.23
2019-02-06T02:18:36.788Z,15.90
2019-02-06T02:21:04.075Z,15.37
2019-02-06T02:23:31.422Z,15.57
2019-02-06T02:25:58.950Z,15.00
2019-02-06T02:28:26.498Z,17.33
2019-02-06T02:30:54.382Z,15.07
2019-02-06T02:33:21.975Z,14.47
2019-02-06T02:35:49.480Z,13.50
2019-02-06T02:38:16.762Z,14.87
2019-02-06T02:40:44.354Z,13.73
2019-02-06T02:43:11.914Z,13.83
2019-02-06T02:45:39.170Z,12.73
2019-02-06T02:48:06.442Z,14.33
2019-02-06T02:50:33.975Z,12.73
2019-02-06T02:53:01.231Z,11.83
2019-02-06T02:55:28.779Z,12.50
2019-02-06T02:57:56.032Z,13.53
2019-02-06T03:00:33.997Z,13.00
2019-02-06T03:03:19.301Z,13.43
2019-02-06T03:05:46.840Z,13.37
2019-02-06T03:08:14.118Z,13.23
2019-02-06T03:10:41.746Z,13.97
2019-02-06T03:13:09.022Z,14.80
2019-02-06T03:15:36.311Z,12.77
2019-02-06T03:18:03.801Z,13.20
2019-02-06T03:20:31.351Z,12.93
2019-02-06T03:22:58.846Z,13.47
2019-02-06T03:25:26.194Z,12.47
2019-02-06T03:27:53.469Z,13.57
2019-02-06T03:30:21.008Z,14.47
2019-02-06T03:32:48.258Z,12.73
2019-02-06T03:35:15.627Z,13.33
2019-02-06T03:37:42.884Z,13.20
2019-02-06T03:40:11.478Z,13.03
2019-02-06T03:42:38.758Z,12.20
2019-02-06T03:45:07.702Z,12.67
2019-02-06T03:47:35.142Z,13.33
2019-02-06T03:50:02.592Z,13.53
2019-02-06T03:52:29.948Z,13.70
2019-02-06T03:54:57.442Z,12.60
2019-02-06T03:57:24.721Z,12.50
2019-02-06T03:59:52.303Z,14.33
2019-02-06T04:02:19.855Z,13.33
2019-02-06T04:04:47.487Z,14.13
2019-02-06T04:07:14.767Z,14.10
2019-02-06T04:09:42.138Z,13.60
2019-02-06T04:12:09.594Z,13.40
2019-02-06T04:14:36.853Z,14.43
2019-02-06T04:17:04.203Z,13.00
2019-02-06T04:19:31.482Z,14.73
2019-02-06T04:21:58.743Z,14.87
2019-02-06T04:24:26.295Z,13.60
2019-02-06T04:26:53.551Z,13.93
2019-02-06T04:29:21.155Z,13.63
2019-02-06T04:31:48.406Z,16.10
2019-02-06T04:34:15.685Z,13.40
2019-02-06T04:36:42.961Z,13.87
2019-02-06T04:39:10.508Z,14.20
2019-02-06T04:41:38.066Z,14.70
2019-02-06T04:44:05.670Z,14.60
2019-02-06T04:46:32.933Z,14.50
2019-02-06T04:49:00.218Z,13.23
2019-02-06T04:51:27.742Z,13.70
2019-02-06T04:53:55.109Z,14.13
2019-02-06T04:56:22.455Z,14.30
2019-02-06T04:58:49.706Z,13.70
2019-02-06T05:01:17.241Z,13.77
2019-02-06T05:03:44.503Z,13.17
2019-02-06T05:06:12.105Z,13.43
2019-02-06T05:08:39.697Z,12.10
2019-02-06T05:11:06.974Z,12.97
2019-02-06T05:13:34.258Z,12.33
2019-02-06T05:16:01.774Z,13.33
2019-02-06T05:18:29.418Z,14.00
2019-02-06T05:20:56.673Z,12.80
2019-02-06T05:23:23.954Z,14.00
2019-02-06T05:25:51.515Z,15.27
2019-02-06T05:28:18.772Z,14.80
2019-02-06T05:30:46.298Z,14.60
2019-02-06T05:33:13.554Z,14.90
2019-02-06T05:35:40.835Z,14.67
2019-02-06T05:38:08.442Z,15.80
2019-02-06T05:40:35.818Z,15.80
2019-02-06T05:43:03.325Z,17.43
2019-02-06T05:45:30.603Z,18.17
2019-02-06T05:47:57.864Z,16.17
2019-02-06T05:50:25.234Z,14.97
2019-02-06T05:52:52.553Z,14.73
2019-02-06T05:55:19.879Z,14.67
2019-02-06T05:57:47.446Z,16.43
2019-02-06T06:00:20.082Z,16.90
2019-02-06T06:02:47.674Z,16.43
2019-02-06T06:05:14.956Z,18.30
2019-02-06T06:07:45.245Z,17.80
2019-02-06T06:10:12.579Z,18.20
2019-02-06T06:12:40.354Z,20.07
2019-02-06T06:15:08.508Z,17.80
2019-02-06T06:17:35.819Z,20.30
2019-02-06T06:20:04.898Z,21.37
2019-02-06T06:22:32.145Z,18.10
2019-02-06T06:24:59.402Z,19.53
2019-02-06T06:27:26.681Z,20.67
2019-02-06T06:29:54.039Z,19.70
2019-02-06T06:32:21.814Z,19.60
2019-02-06T06:34:49.322Z,20.43
2019-02-06T06:37:16.864Z,20.13
2019-02-06T06:39:44.114Z,20.37
2019-02-06T06:42:11.410Z,21.10
2019-02-06T06:44:38.750Z,21.87
2019-02-06T06:47:06.030Z,19.13
2019-02-06T06:49:33.554Z,20.50
2019-02-06T06:52:03.926Z,20.00
2019-02-06T06:54:29.938Z,20.23
2019-02-06T06:56:57.214Z,19.87
2019-02-06T06:59:24.465Z,20.47
2019-02-06T07:01:51.746Z,19.73
2019-02-06T07:04:19.001Z,19.63
2019-02-06T07:06:46.581Z,19.57
2019-02-06T07:09:14.143Z,22.73
2019-02-06T07:11:41.476Z,19.00
2019-02-06T07:14:08.835Z,19.20
2019-02-06T07:16:36.091Z,18.30
2019-02-06T07:19:03.441Z,21.40
2019-02-06T07:21:30.726Z,20.77
2019-02-06T07:23:57.983Z,18.43
2019-02-06T07:26:25.646Z,19.53
2019-02-06T07:28:52.894Z,17.93
2019-02-06T07:31:20.178Z,21.07
2019-02-06T07:33:47.722Z,18.40
2019-02-06T07:36:14.974Z,18.97
2019-02-06T07:38:42.262Z,18.57
2019-02-06T07:41:09.515Z,19.30
2019-02-06T07:43:36.803Z,18.10
2019-02-06T07:46:04.428Z,17.70
2019-02-06T07:48:31.759Z,16.83
2019-02-06T07:50:59.033Z,17.80
2019-02-06T07:53:26.390Z,19.83
2019-02-06T07:55:53.642Z,36.37
2019-02-06T07:58:20.924Z,26.07
2019-02-06T08:00:48.182Z,26.37
2019-02-06T08:03:15.833Z,32.50
2019-02-06T08:05:43.082Z,21.53
2019-02-06T08:08:10.692Z,28.40
2019-02-06T08:10:38.048Z,30.03
2019-02-06T08:13:05.467Z,26.70
2019-02-06T08:15:32.712Z,22.57
2019-02-06T08:18:00.230Z,21.83
2019-02-06T08:20:27.512Z,20.80
2019-02-06T08:22:55.044Z,29.10
2019-02-06T08:25:23.071Z,23.53
2019-02-06T08:27:50.589Z,20.83
2019-02-06T08:30:22.200Z,20.27
2019-02-06T08:32:49.450Z,22.00
2019-02-06T08:35:16.729Z,21.73
2019-02-06T08:37:44.049Z,21.37
2019-02-06T08:40:18.447Z,22.07
2019-02-06T08:42:45.709Z,21.70
2019-02-06T08:45:14.644Z,20.77
2019-02-06T08:47:42.225Z,21.13
2019-02-06T08:50:11.126Z,20.07
2019-02-06T08:52:38.410Z,19.50
2019-02-06T08:55:07.214Z,21.50
2019-02-06T08:57:34.562Z,20.17
2019-02-06T09:00:01.811Z,19.87
2019-02-06T09:02:29.102Z,21.13
2019-02-06T09:04:56.365Z,20.97
2019-02-06T09:07:23.626Z,20.70
2019-02-06T09:09:50.908Z,24.53
2019-02-06T09:12:18.565Z,24.03
2019-02-06T09:14:45.839Z,22.63
2019-02-06T09:17:13.095Z,21.70
2019-02-06T09:19:40.378Z,20.80
2019-02-06T09:22:07.627Z,20.70
2019-02-06T09:24:34.918Z,19.70
2019-02-06T09:27:02.198Z,20.27
2019-02-06T09:29:29.526Z,19.17
2019-02-06T09:31:59.315Z,19.77
2019-02-06T09:34:26.222Z,18.67
2019-02-06T09:36:53.521Z,19.00
2019-02-06T09:39:20.765Z,17.87
2019-02-06T09:41:48.017Z,18.70
2019-02-06T09:44:15.305Z,17.63
2019-02-06T09:46:42.561Z,16.70
2019-02-06T09:49:10.194Z,17.50
2019-02-06T09:51:37.466Z,18.57
2019-02-06T09:54:05.096Z,17.27
2019-02-06T09:56:32.345Z,18.00
2019-02-06T09:58:59.626Z,18.90
2019-02-06T10:01:26.977Z,19.40
2019-02-06T10:03:54.234Z,18.90
2019-02-06T10:06:21.509Z,19.13
2019-02-06T10:08:49.082Z,19.70
2019-02-06T10:11:16.417Z,18.33
2019-02-06T10:13:43.690Z,19.90
2019-02-06T10:16:10.950Z,19.93
2019-02-06T10:18:38.234Z,20.70
2019-02-06T10:21:05.519Z,19.97
2019-02-06T10:23:32.879Z,17.93
2019-02-06T10:26:00.161Z,19.13
2019-02-06T10:28:27.414Z,17.03
2019-02-06T10:30:54.765Z,18.47
2019-02-06T10:33:22.037Z,18.53
2019-02-06T10:35:52.087Z,19.33
2019-02-06T10:38:18.636Z,18.47
2019-02-06T10:40:45.886Z,18.70
2019-02-06T10:43:13.140Z,17.10
2019-02-06T10:45:40.422Z,18.00
2019-02-06T10:48:07.741Z,18.03
2019-02-06T10:50:36.296Z,19.10
2019-02-06T10:53:03.822Z,19.50
2019-02-06T10:55:31.170Z,19.17
2019-02-06T10:57:58.598Z,18.50
2019-02-06T11:00:33.114Z,18.57
2019-02-06T11:03:00.404Z,17.90
2019-02-06T11:05:27.754Z,17.43
2019-02-06T11:07:55.106Z,17.93
2019-02-06T11:10:23.531Z,18.93
2019-02-06T11:12:50.810Z,17.47
2019-02-06T11:15:18.157Z,18.03
2019-02-06T11:17:45.409Z,17.33
2019-02-06T11:20:14.577Z,18.67
2019-02-06T11:22:41.854Z,18.17
2019-02-06T11:25:10.286Z,17.33
2019-02-06T11:27:37.694Z,17.27
2019-02-06T11:30:06.515Z,16.67
2019-02-06T11:32:33.790Z,16.93
2019-02-06T11:35:02.517Z,16.30
2019-02-06T11:37:30.136Z,16.30
2019-02-06T11:39:58.337Z,14.87
2019-02-06T11:42:25.716Z,14.80
2019-02-06T11:44:52.997Z,13.77
2019-02-06T11:47:20.317Z,16.63
2019-02-06T11:49:49.234Z,14.83
2019-02-06T11:52:16.483Z,15.40
2019-02-06T11:54:43.767Z,16.60
2019-02-06T11:57:11.019Z,16.40
2019-02-06T11:59:38.566Z,16.40
2019-02-06T12:02:05.821Z,15.60
2019-02-06T12:04:33.367Z,16.33
2019-02-06T12:07:00.609Z,15.43
2019-02-06T12:09:27.890Z,15.17
2019-02-06T12:11:55.780Z,16.60
2019-02-06T12:14:23.328Z,16.87
2019-02-06T12:16:50.609Z,15.80
2019-02-06T12:19:18.045Z,17.70
2019-02-06T12:21:45.306Z,14.70
2019-02-06T12:24:12.593Z,15.73
2019-02-06T12:26:39.845Z,16.60
2019-02-06T12:29:07.098Z,15.10
2019-02-06T12:31:34.559Z,16.83
2019-02-06T12:34:01.814Z,17.43
2019-02-06T12:36:29.169Z,15.90
2019-02-06T12:38:56.422Z,16.70
2019-02-06T12:41:23.746Z,17.37
2019-02-06T12:43:51.072Z,18.37
2019-02-06T12:46:18.368Z,19.07
2019-02-06T12:48:45.695Z,18.90
2019-02-06T12:51:13.024Z,17.93
2019-02-06T12:53:40.573Z,17.30
2019-02-06T12:56:07.863Z,18.40
2019-02-06T12:58:35.209Z,17.13
2019-02-06T13:01:02.606Z,17.97
2019-02-06T13:03:29.892Z,16.90
2019-02-06T13:05:57.434Z,16.10
2019-02-06T13:08:25.443Z,18.53
2019-02-06T13:10:52.813Z,17.33
2019-02-06T13:13:20.113Z,19.07
2019-02-06T13:15:47.639Z,16.37
2019-02-06T13:18:15.195Z,18.30
2019-02-06T13:20:42.865Z,18.80
2019-02-06T13:23:10.316Z,17.43
2019-02-06T13:25:37.567Z,17.83
2019-02-06T13:28:04.982Z,18.80
2019-02-06T13:30:35.177Z,16.67
2019-02-06T13:33:03.129Z,17.80
2019-02-06T13:35:30.559Z,18.20
2019-02-06T13:37:57.854Z,18.03
2019-02-06T13:40:28.359Z,17.70
2019-02-06T13:42:56.084Z,18.13
2019-02-06T13:45:24.703Z,17.77
2019-02-06T13:47:52.080Z,18.33
2019-02-06T13:50:22.250Z,17.70
2019-02-06T13:52:49.427Z,18.30
2019-02-06T13:55:16.845Z,17.47
2019-02-06T13:57:44.205Z,16.73
2019-02-06T14:00:13.683Z,14.93
2019-02-06T14:02:41.338Z,15.93
2019-02-06T14:05:09.025Z,15.23
2019-02-06T14:07:36.303Z,16.50
2019-02-06T14:10:04.688Z,16.37
2019-02-06T14:12:31.975Z,16.70
2019-02-06T14:14:59.450Z,17.47
2019-02-06T14:17:26.706Z,17.47
2019-02-06T14:19:54.834Z,17.60
2019-02-06T14:22:22.198Z,17.57
2019-02-06T14:24:49.517Z,20.37
2019-02-06T14:27:18.377Z,19.70
2019-02-06T14:30:04.016Z,19.30
2019-02-06T14:32:35.907Z,19.70
2019-02-06T14:35:04.699Z,18.70
2019-02-06T14:37:42.339Z,19.70
2019-02-06T14:40:14.032Z,20.03
2019-02-06T14:42:45.723Z,20.80
2019-02-06T14:45:32.614Z,21.93
2019-02-06T14:48:04.454Z,20.20
2019-02-06T14:50:33.554Z,21.10
2019-02-06T14:53:18.605Z,20.83
2019-02-06T14:55:48.281Z,22.00
2019-02-06T14:58:33.323Z,21.53
2019-02-06T15:01:18.590Z,20.63
2019-02-06T15:03:59.218Z,21.80
2019-02-06T15:06:34.046Z,20.27
2019-02-06T15:09:22.333Z,20.47
2019-02-06T15:11:51.322Z,21.93
2019-02-06T15:14:20.133Z,21.30
2019-02-06T15:17:00.701Z,20.83
2019-02-06T15:19:41.703Z,19.57
2019-02-06T15:22:25.589Z,21.60
2019-02-06T15:24:57.327Z,20.37
2019-02-06T15:27:29.100Z,19.60
2019-02-06T15:30:04.929Z,19.13
2019-02-06T15:32:36.694Z,20.50
2019-02-06T15:35:20.550Z,19.93
2019-02-06T15:37:55.030Z,20.77
2019-02-06T15:40:26.785Z,19.23
2019-02-06T15:42:58.590Z,20.30
2019-02-06T15:45:30.599Z,19.77
2019-02-06T15:48:11.157Z,21.10
2019-02-06T15:50:42.655Z,18.80
2019-02-06T15:53:14.468Z,20.50
2019-02-06T15:55:52.352Z,20.60
2019-02-06T15:58:21.190Z,19.90
2019-02-06T16:00:52.910Z,20.20
2019-02-06T16:03:56.259Z,19.60
2019-02-06T16:06:25.552Z,20.97
2019-02-06T16:08:54.448Z,19.67
2019-02-06T16:11:25.894Z,20.37
2019-02-06T16:14:06.714Z,18.10
2019-02-06T16:16:44.257Z,18.17
2019-02-06T16:19:31.419Z,19.40
2019-02-06T16:22:06.117Z,18.83
2019-02-06T16:24:34.908Z,19.77
2019-02-06T16:27:03.733Z,21.83
2019-02-06T16:29:35.639Z,23.33
2019-02-06T16:32:13.255Z,23.23
2019-02-06T16:34:42.262Z,23.40
2019-02-06T16:37:20.007Z,23.63
2019-02-06T16:40:01.073Z,25.00
2019-02-06T16:42:29.866Z,24.77
2019-02-06T16:45:07.634Z,24.43
2019-02-06T16:47:45.075Z,26.83
2019-02-06T16:50:12.799Z,27.33
2019-02-06T16:52:56.862Z,25.97
2019-02-06T16:55:37.681Z,25.70
2019-02-06T16:58:09.415Z,24.97
2019-02-06T17:00:40.915Z,24.27
2019-02-06T17:03:13.282Z,25.50
2019-02-06T17:05:42.348Z,25.17
2019-02-06T17:08:14.110Z,24.20
2019-02-06T17:10:43.586Z,22.90
2019-02-06T17:13:18.404Z,25.17
2019-02-06T17:15:50.134Z,25.97
2019-02-06T17:18:18.950Z,28.40
2019-02-06T17:20:47.737Z,25.23
2019-02-06T17:23:32.006Z,25.77
2019-02-06T17:26:17.273Z,24.87
2019-02-06T17:28:46.176Z,25.57
2019-02-06T17:31:31.469Z,24.47
2019-02-06T17:34:12.300Z,23.63
2019-02-06T17:36:43.841Z,25.73
2019-02-06T17:39:24.202Z,25.03
2019-02-06T17:41:49.082Z,23.50
2019-02-06T17:44:17.875Z,25.37
2019-02-06T17:46:55.648Z,24.17
2019-02-06T17:49:24.438Z,22.30
2019-02-06T17:51:56.203Z,22.70
2019-02-06T17:54:25.194Z,24.17
2019-02-06T17:56:52.825Z,24.47
2019-02-06T17:59:20.380Z,23.20
2019-02-06T18:01:47.722Z,22.37
2019-02-06T18:04:15.021Z,22.40
2019-02-06T18:06:42.533Z,22.37
2019-02-06T18:09:11.173Z,23.87
2019-02-06T18:11:38.470Z,23.20
2019-02-06T18:14:05.810Z,20.40
2019-02-06T18:16:33.095Z,21.10
2019-02-06T18:19:00.422Z,17.87
2019-02-06T18:21:27.773Z,21.43
2019-02-06T18:23:55.935Z,19.70
2019-02-06T18:26:23.299Z,23.90
2019-02-06T18:28:51.980Z,23.43
2019-02-06T18:31:19.469Z,22.50
2019-02-06T18:33:46.936Z,20.50
2019-02-06T18:36:14.382Z,20.87
2019-02-06T18:38:46.632Z,19.90
2019-02-06T18:41:11.226Z,19.30
2019-02-06T18:43:38.901Z,18.07
2019-02-06T18:46:06.901Z,22.30
2019-02-06T18:48:34.657Z,18.90
2019-02-06T18:51:01.905Z,19.60
2019-02-06T18:53:29.260Z,18.23
2019-02-06T18:55:56.605Z,16.83
2019-02-06T18:58:24.185Z,19.57
2019-02-06T19:00:51.650Z,17.23
2019-02-06T19:03:20.517Z,17.57
2019-02-06T19:05:48.021Z,17.10
2019-02-06T19:08:15.443Z,18.10
2019-02-06T19:10:42.798Z,18.83
2019-02-06T19:13:10.542Z,17.13
2019-02-06T19:15:37.892Z,18.60
2019-02-06T19:18:06.674Z,15.70
2019-02-06T19:20:35.682Z,17.33
2019-02-06T19:23:03.088Z,15.27
2019-02-06T19:25:30.446Z,16.63
2019-02-06T19:27:57.778Z,15.30
2019-02-06T19:30:26.500Z,18.13
2019-02-06T19:32:54.062Z,18.43
2019-02-06T19:35:21.316Z,18.53
2019-02-06T19:37:48.671Z,17.03
2019-02-06T19:40:16.830Z,19.07
2019-02-06T19:42:44.158Z,18.63
2019-02-06T19:45:12.506Z,18.77
2019-02-06T19:47:40.187Z,20.10
2019-02-06T19:50:11.998Z,21.17
2019-02-06T19:52:39.359Z,24.20
2019-02-06T19:55:08.490Z,23.10
2019-02-06T19:57:35.780Z,23.30
2019-02-06T20:00:04.662Z,22.40
2019-02-06T20:02:31.918Z,22.60
2019-02-06T20:04:59.275Z,21.70
2019-02-06T20:07:26.559Z,19.60
2019-02-06T20:09:53.885Z,20.43
2019-02-06T20:12:21.439Z,20.07
2019-02-06T20:14:48.841Z,19.00
2019-02-06T20:17:16.197Z,18.87
2019-02-06T20:19:43.456Z,17.50
2019-02-06T20:22:10.882Z,19.53
2019-02-06T20:24:38.138Z,18.30
2019-02-06T20:27:05.494Z,18.00
2019-02-06T20:29:32.788Z,18.43
2019-02-06T20:32:00.133Z,19.97
2019-02-06T20:34:27.926Z,19.17
2019-02-06T20:36:55.210Z,20.17
2019-02-06T20:39:22.566Z,20.20
2019-02-06T20:41:49.822Z,21.33
2019-02-06T20:44:17.195Z,21.93
2019-02-06T20:46:44.450Z,26.17
2019-02-06T20:49:11.966Z,23.63
2019-02-06T20:51:39.391Z,22.90
2019-02-06T20:54:06.954Z,23.70
2019-02-06T20:56:34.211Z,24.73
2019-02-06T20:59:01.544Z,24.90
2019-02-06T21:01:29.155Z,24.73
2019-02-06T21:03:56.410Z,23.13
2019-02-06T21:06:23.700Z,24.97
2019-02-06T21:08:50.951Z,24.37
2019-02-06T21:11:18.241Z,24.40
2019-02-06T21:13:45.866Z,23.93
2019-02-06T21:16:13.395Z,27.03
2019-02-06T21:18:40.656Z,25.70
2019-02-06T21:21:08.026Z,22.23
2019-02-06T21:23:36.137Z,24.20
2019-02-06T21:26:03.798Z,24.77
2019-02-06T21:28:31.407Z,24.80
2019-02-06T21:30:58.750Z,24.90
2019-02-06T21:33:26.030Z,25.83
2019-02-06T21:35:53.386Z,25.03
2019-02-06T21:38:20.638Z,26.30
2019-02-06T21:40:48.058Z,25.53
2019-02-06T21:43:15.364Z,24.23
2019-02-06T21:45:42.742Z,24.73
2019-02-06T21:48:10.046Z,24.03
2019-02-06T21:50:37.569Z,24.03
2019-02-06T21:53:05.129Z,24.90
2019-02-06T21:55:32.561Z,23.40
2019-02-06T21:57:59.919Z,24.23
2019-02-06T22:00:31.406Z,23.83
2019-02-06T22:02:58.763Z,24.37
2019-02-06T22:05:26.155Z,23.60
2019-02-06T22:07:53.579Z,24.90
2019-02-06T22:10:21.431Z,24.57
2019-02-06T22:12:48.777Z,24.60
2019-02-06T22:15:20.039Z,22.00
2019-02-06T22:17:47.437Z,25.13
2019-02-06T22:20:15.171Z,23.73
2019-02-06T22:22:43.063Z,23.10
2019-02-06T22:25:10.482Z,24.70
2019-02-06T22:27:37.821Z,24.40
2019-02-06T22:30:12.633Z,24.17
2019-02-06T22:32:39.957Z,24.80
2019-02-06T22:35:08.666Z,28.50
2019-02-06T22:37:35.958Z,27.80
2019-02-06T22:40:04.746Z,26.53
2019-02-06T22:42:32.003Z,25.70
2019-02-06T22:44:59.621Z,24.23
2019-02-06T22:47:26.886Z,23.07
2019-02-06T22:49:54.138Z,24.17
2019-02-06T22:52:23.012Z,25.83
2019-02-06T22:54:50.402Z,24.13
2019-02-06T22:57:17.690Z,26.90
2019-02-06T22:59:45.020Z,25.93
2019-02-06T23:02:12.333Z,31.97
2019-02-06T23:04:39.614Z,25.50
2019-02-06T23:07:07.345Z,26.40
2019-02-06T23:09:34.731Z,24.93
2019-02-06T23:12:02.130Z,30.40
2019-02-06T23:14:29.483Z,33.43
2019-02-06T23:16:56.771Z,32.50
2019-02-06T23:19:24.017Z,33.83
2019-02-06T23:21:51.305Z,33.87
2019-02-06T23:24:18.635Z,31.60
2019-02-06T23:26:45.891Z,27.00
2019-02-06T23:29:13.187Z,29.30
2019-02-06T23:31:40.505Z,31.00
2019-02-06T23:34:07.783Z,28.20
2019-02-06T23:36:35.298Z,27.03
2019-02-06T23:39:03.694Z,25.63
2019-02-06T23:41:31.221Z,26.73
2019-02-06T23:43:58.477Z,27.00
2019-02-06T23:46:25.758Z,25.67
2019-02-06T23:48:53.045Z,25.50
2019-02-06T23:51:20.322Z,25.80
2019-02-06T23:53:47.714Z,26.63
2019-02-06T23:56:15.041Z,27.70
2019-02-06T23:58:42.644Z,25.83
